sensor_id;sensor_type;location;lat;lon;timestamp;P1;durP1;ratioP1;P2;durP2;ratioP2
7501;SDS011;3792;47.740;7.606;2023-03-26T00:01:47;5.63;;;1.60;;
7501;SDS011;3792;47.740;7.606;2023-03-26T00:04:15;4.53;;;1.50;;
7501;SDS011;3792;47.740;7.606;2023-03-26T00:06:44;4.67;;;1.80;;
7501;SDS011;3792;47.740;7.606;2023-03-26T00:09:13;3.50;;;1.60;;
7501;SDS011;3792;47.740;7.606;2023-03-26T00:11:42;3.77;;;1.57;;
7501;SDS011;3792;47.740;7.606;2023-03-26T00:14:10;3.43;;;0.97;;
7501;SDS011;3792;47.740;7.606;2023-03-26T00:16:41;8.80;;;1.97;;
7501;SDS011;3792;47.740;7.606;2023-03-26T00:19:09;6.53;;;1.90;;
7501;SDS011;3792;47.740;7.606;2023-03-26T00:21:36;3.10;;;1.20;;
7501;SDS011;3792;47.740;7.606;2023-03-26T00:24:04;5.40;;;1.60;;
7501;SDS011;3792;47.740;7.606;2023-03-26T00:26:34;6.93;;;2.43;;
7501;SDS011;3792;47.740;7.606;2023-03-26T00:29:04;5.87;;;1.50;;
7501;SDS011;3792;47.740;7.606;2023-03-26T00:31:32;6.80;;;2.03;;
7501;SDS011;3792;47.740;7.606;2023-03-26T00:34:02;4.13;;;1.83;;
7501;SDS011;3792;47.740;7.606;2023-03-26T00:36:29;6.10;;;2.03;;
7501;SDS011;3792;47.740;7.606;2023-03-26T00:38:59;7.37;;;1.87;;
7501;SDS011;3792;47.740;7.606;2023-03-26T00:41:29;5.60;;;1.47;;
7501;SDS011;3792;47.740;7.606;2023-03-26T00:43:56;4.73;;;1.40;;
7501;SDS011;3792;47.740;7.606;2023-03-26T00:46:28;5.90;;;1.90;;
7501;SDS011;3792;47.740;7.606;2023-03-26T00:48:56;6.87;;;2.03;;
7501;SDS011;3792;47.740;7.606;2023-03-26T00:51:23;4.10;;;1.70;;
7501;SDS011;3792;47.740;7.606;2023-03-26T00:53:51;4.00;;;1.60;;
7501;SDS011;3792;47.740;7.606;2023-03-26T00:56:18;6.23;;;1.60;;
7501;SDS011;3792;47.740;7.606;2023-03-26T00:58:45;7.87;;;2.00;;
7501;SDS011;3792;47.740;7.606;2023-03-26T01:01:15;6.57;;;1.90;;
7501;SDS011;3792;47.740;7.606;2023-03-26T01:03:46;5.30;;;1.60;;
7501;SDS011;3792;47.740;7.606;2023-03-26T01:06:16;7.00;;;1.80;;
7501;SDS011;3792;47.740;7.606;2023-03-26T01:08:47;5.60;;;1.43;;
7501;SDS011;3792;47.740;7.606;2023-03-26T01:11:18;6.50;;;1.87;;
7501;SDS011;3792;47.740;7.606;2023-03-26T01:13:49;6.23;;;1.63;;
7501;SDS011;3792;47.740;7.606;2023-03-26T01:16:21;6.63;;;2.07;;
7501;SDS011;3792;47.740;7.606;2023-03-26T01:18:53;6.00;;;1.87;;
7501;SDS011;3792;47.740;7.606;2023-03-26T01:21:23;3.47;;;1.50;;
7501;SDS011;3792;47.740;7.606;2023-03-26T01:23:57;6.67;;;1.90;;
7501;SDS011;3792;47.740;7.606;2023-03-26T01:29:29;5.53;;;1.73;;
7501;SDS011;3792;47.740;7.606;2023-03-26T01:32:02;4.47;;;2.00;;
7501;SDS011;3792;47.740;7.606;2023-03-26T01:34:40;5.97;;;2.07;;
7501;SDS011;3792;47.740;7.606;2023-03-26T01:37:15;5.30;;;1.67;;
7501;SDS011;3792;47.740;7.606;2023-03-26T01:39:49;11.40;;;2.10;;
7501;SDS011;3792;47.740;7.606;2023-03-26T01:42:23;5.13;;;1.40;;
7501;SDS011;3792;47.740;7.606;2023-03-26T01:44:58;6.73;;;2.47;;
7501;SDS011;3792;47.740;7.606;2023-03-26T01:47:30;5.23;;;2.00;;
7501;SDS011;3792;47.740;7.606;2023-03-26T01:49:59;7.00;;;1.70;;
7501;SDS011;3792;47.740;7.606;2023-03-26T01:52:26;7.60;;;1.57;;
7501;SDS011;3792;47.740;7.606;2023-03-26T01:54:54;6.87;;;1.80;;
7501;SDS011;3792;47.740;7.606;2023-03-26T01:57:25;6.03;;;2.37;;
7501;SDS011;3792;47.740;7.606;2023-03-26T02:00:02;4.87;;;1.60;;
7501;SDS011;3792;47.740;7.606;2023-03-26T02:02:40;6.80;;;1.70;;
7501;SDS011;3792;47.740;7.606;2023-03-26T02:05:19;4.97;;;1.37;;
7501;SDS011;3792;47.740;7.606;2023-03-26T02:07:51;8.67;;;2.83;;
7501;SDS011;3792;47.740;7.606;2023-03-26T02:10:26;7.00;;;1.70;;
7501;SDS011;3792;47.740;7.606;2023-03-26T02:12:54;4.50;;;1.70;;
7501;SDS011;3792;47.740;7.606;2023-03-26T02:15:23;7.63;;;1.90;;
7501;SDS011;3792;47.740;7.606;2023-03-26T02:17:51;6.20;;;1.67;;
7501;SDS011;3792;47.740;7.606;2023-03-26T02:20:20;7.87;;;1.70;;
7501;SDS011;3792;47.740;7.606;2023-03-26T02:22:47;9.27;;;1.87;;
7501;SDS011;3792;47.740;7.606;2023-03-26T02:25:14;4.50;;;1.50;;
7501;SDS011;3792;47.740;7.606;2023-03-26T02:27:45;10.07;;;1.77;;
7501;SDS011;3792;47.740;7.606;2023-03-26T02:30:14;5.67;;;1.70;;
7501;SDS011;3792;47.740;7.606;2023-03-26T02:32:43;5.00;;;1.80;;
7501;SDS011;3792;47.740;7.606;2023-03-26T02:35:10;7.33;;;1.60;;
7501;SDS011;3792;47.740;7.606;2023-03-26T02:37:38;3.90;;;1.20;;
7501;SDS011;3792;47.740;7.606;2023-03-26T02:40:06;6.00;;;1.90;;
7501;SDS011;3792;47.740;7.606;2023-03-26T02:42:36;8.77;;;1.97;;
7501;SDS011;3792;47.740;7.606;2023-03-26T02:45:05;4.73;;;1.53;;
7501;SDS011;3792;47.740;7.606;2023-03-26T02:47:32;9.13;;;1.67;;
7501;SDS011;3792;47.740;7.606;2023-03-26T02:49:59;9.13;;;2.10;;
7501;SDS011;3792;47.740;7.606;2023-03-26T02:52:27;6.33;;;1.60;;
7501;SDS011;3792;47.740;7.606;2023-03-26T02:54:55;9.53;;;2.10;;
7501;SDS011;3792;47.740;7.606;2023-03-26T02:57:22;7.40;;;1.93;;
7501;SDS011;3792;47.740;7.606;2023-03-26T02:59:50;9.93;;;1.97;;
7501;SDS011;3792;47.740;7.606;2023-03-26T03:02:19;5.90;;;1.50;;
7501;SDS011;3792;47.740;7.606;2023-03-26T03:04:48;7.33;;;1.40;;
7501;SDS011;3792;47.740;7.606;2023-03-26T03:07:16;6.13;;;1.90;;
7501;SDS011;3792;47.740;7.606;2023-03-26T03:09:43;3.33;;;1.43;;
7501;SDS011;3792;47.740;7.606;2023-03-26T03:12:10;6.63;;;1.80;;
7501;SDS011;3792;47.740;7.606;2023-03-26T03:14:37;5.13;;;1.60;;
7501;SDS011;3792;47.740;7.606;2023-03-26T03:17:04;6.13;;;1.80;;
7501;SDS011;3792;47.740;7.606;2023-03-26T03:19:33;5.77;;;1.93;;
7501;SDS011;3792;47.740;7.606;2023-03-26T03:22:01;7.20;;;2.03;;
7501;SDS011;3792;47.740;7.606;2023-03-26T03:24:28;7.23;;;2.00;;
7501;SDS011;3792;47.740;7.606;2023-03-26T03:26:58;6.63;;;2.07;;
7501;SDS011;3792;47.740;7.606;2023-03-26T03:29:25;9.57;;;2.23;;
7501;SDS011;3792;47.740;7.606;2023-03-26T03:31:52;7.13;;;1.60;;
7501;SDS011;3792;47.740;7.606;2023-03-26T03:34:19;4.33;;;1.80;;
7501;SDS011;3792;47.740;7.606;2023-03-26T03:36:48;4.90;;;1.80;;
7501;SDS011;3792;47.740;7.606;2023-03-26T03:39:16;9.40;;;2.13;;
7501;SDS011;3792;47.740;7.606;2023-03-26T03:41:43;12.30;;;2.27;;
7501;SDS011;3792;47.740;7.606;2023-03-26T03:44:10;7.60;;;1.93;;
7501;SDS011;3792;47.740;7.606;2023-03-26T03:46:37;4.03;;;1.40;;
7501;SDS011;3792;47.740;7.606;2023-03-26T03:49:04;2.87;;;1.30;;
7501;SDS011;3792;47.740;7.606;2023-03-26T03:51:31;7.30;;;1.87;;
7501;SDS011;3792;47.740;7.606;2023-03-26T03:54:00;6.00;;;1.90;;
7501;SDS011;3792;47.740;7.606;2023-03-26T03:56:28;5.57;;;2.13;;
7501;SDS011;3792;47.740;7.606;2023-03-26T03:58:55;4.23;;;1.33;;
7501;SDS011;3792;47.740;7.606;2023-03-26T04:01:23;7.47;;;1.70;;
7501;SDS011;3792;47.740;7.606;2023-03-26T04:03:50;7.90;;;1.87;;
7501;SDS011;3792;47.740;7.606;2023-03-26T04:06:17;7.53;;;2.40;;
7501;SDS011;3792;47.740;7.606;2023-03-26T04:08:44;2.97;;;1.50;;
7501;SDS011;3792;47.740;7.606;2023-03-26T04:11:13;4.33;;;1.43;;
7501;SDS011;3792;47.740;7.606;2023-03-26T04:13:40;6.80;;;1.63;;
7501;SDS011;3792;47.740;7.606;2023-03-26T04:16:07;5.20;;;2.23;;
7501;SDS011;3792;47.740;7.606;2023-03-26T04:18:35;3.53;;;1.40;;
7501;SDS011;3792;47.740;7.606;2023-03-26T04:21:03;4.77;;;1.50;;
7501;SDS011;3792;47.740;7.606;2023-03-26T04:23:31;4.93;;;1.50;;
7501;SDS011;3792;47.740;7.606;2023-03-26T04:25:59;3.97;;;1.37;;
7501;SDS011;3792;47.740;7.606;2023-03-26T04:28:31;5.70;;;1.50;;
7501;SDS011;3792;47.740;7.606;2023-03-26T04:31:07;3.50;;;1.50;;
7501;SDS011;3792;47.740;7.606;2023-03-26T04:33:37;7.07;;;2.03;;
7501;SDS011;3792;47.740;7.606;2023-03-26T04:36:05;4.87;;;1.80;;
7501;SDS011;3792;47.740;7.606;2023-03-26T04:38:33;6.57;;;1.60;;
7501;SDS011;3792;47.740;7.606;2023-03-26T04:41:05;3.23;;;1.13;;
7501;SDS011;3792;47.740;7.606;2023-03-26T04:43:34;4.33;;;1.30;;
7501;SDS011;3792;47.740;7.606;2023-03-26T04:46:01;6.53;;;1.70;;
7501;SDS011;3792;47.740;7.606;2023-03-26T04:48:28;5.63;;;1.70;;
7501;SDS011;3792;47.740;7.606;2023-03-26T04:50:56;4.03;;;1.67;;
7501;SDS011;3792;47.740;7.606;2023-03-26T04:53:23;5.83;;;1.97;;
7501;SDS011;3792;47.740;7.606;2023-03-26T04:55:52;4.60;;;1.83;;
7501;SDS011;3792;47.740;7.606;2023-03-26T04:58:22;4.10;;;1.93;;
7501;SDS011;3792;47.740;7.606;2023-03-26T05:00:55;7.43;;;1.50;;
7501;SDS011;3792;47.740;7.606;2023-03-26T05:03:25;4.63;;;1.50;;
7501;SDS011;3792;47.740;7.606;2023-03-26T05:05:55;4.43;;;1.70;;
7501;SDS011;3792;47.740;7.606;2023-03-26T05:08:23;3.77;;;1.93;;
7501;SDS011;3792;47.740;7.606;2023-03-26T05:10:51;4.20;;;1.50;;
7501;SDS011;3792;47.740;7.606;2023-03-26T05:13:18;3.40;;;1.40;;
7501;SDS011;3792;47.740;7.606;2023-03-26T05:15:45;2.03;;;1.30;;
7501;SDS011;3792;47.740;7.606;2023-03-26T05:18:13;4.50;;;1.20;;
7501;SDS011;3792;47.740;7.606;2023-03-26T05:20:40;3.43;;;1.43;;
7501;SDS011;3792;47.740;7.606;2023-03-26T05:23:08;4.73;;;1.57;;
7501;SDS011;3792;47.740;7.606;2023-03-26T05:25:35;6.90;;;1.70;;
7501;SDS011;3792;47.740;7.606;2023-03-26T05:28:03;4.00;;;1.73;;
7501;SDS011;3792;47.740;7.606;2023-03-26T05:30:30;3.10;;;1.37;;
7501;SDS011;3792;47.740;7.606;2023-03-26T05:32:57;3.67;;;1.47;;
7501;SDS011;3792;47.740;7.606;2023-03-26T05:35:26;6.77;;;1.30;;
7501;SDS011;3792;47.740;7.606;2023-03-26T05:37:53;4.60;;;1.17;;
7501;SDS011;3792;47.740;7.606;2023-03-26T05:40:20;5.47;;;1.53;;
7501;SDS011;3792;47.740;7.606;2023-03-26T05:42:47;3.63;;;1.60;;
7501;SDS011;3792;47.740;7.606;2023-03-26T05:45:15;5.33;;;1.60;;
7501;SDS011;3792;47.740;7.606;2023-03-26T05:47:42;4.17;;;1.40;;
7501;SDS011;3792;47.740;7.606;2023-03-26T05:50:09;3.13;;;1.20;;
7501;SDS011;3792;47.740;7.606;2023-03-26T05:52:38;6.13;;;1.30;;
7501;SDS011;3792;47.740;7.606;2023-03-26T05:55:05;5.43;;;1.50;;
7501;SDS011;3792;47.740;7.606;2023-03-26T05:57:33;4.03;;;1.40;;
7501;SDS011;3792;47.740;7.606;2023-03-26T06:00:00;2.00;;;1.30;;
7501;SDS011;3792;47.740;7.606;2023-03-26T06:02:28;2.13;;;1.00;;
7501;SDS011;3792;47.740;7.606;2023-03-26T06:04:56;5.83;;;1.57;;
7501;SDS011;3792;47.740;7.606;2023-03-26T06:07:23;3.37;;;1.47;;
7501;SDS011;3792;47.740;7.606;2023-03-26T06:09:52;3.17;;;1.23;;
7501;SDS011;3792;47.740;7.606;2023-03-26T06:12:19;2.80;;;1.50;;
7501;SDS011;3792;47.740;7.606;2023-03-26T06:14:46;3.97;;;1.73;;
7501;SDS011;3792;47.740;7.606;2023-03-26T06:17:13;3.03;;;1.30;;
7501;SDS011;3792;47.740;7.606;2023-03-26T06:19:40;2.07;;;1.30;;
7501;SDS011;3792;47.740;7.606;2023-03-26T06:22:07;3.50;;;1.47;;
7501;SDS011;3792;47.740;7.606;2023-03-26T06:24:34;7.30;;;1.67;;
7501;SDS011;3792;47.740;7.606;2023-03-26T06:27:03;2.30;;;1.37;;
7501;SDS011;3792;47.740;7.606;2023-03-26T06:29:30;3.70;;;1.20;;
7501;SDS011;3792;47.740;7.606;2023-03-26T06:31:57;3.80;;;1.37;;
7501;SDS011;3792;47.740;7.606;2023-03-26T06:34:24;3.33;;;1.50;;
7501;SDS011;3792;47.740;7.606;2023-03-26T06:36:51;4.67;;;1.27;;
7501;SDS011;3792;47.740;7.606;2023-03-26T06:39:18;5.03;;;1.20;;
7501;SDS011;3792;47.740;7.606;2023-03-26T06:41:46;4.23;;;1.33;;
7501;SDS011;3792;47.740;7.606;2023-03-26T06:44:14;5.07;;;1.30;;
7501;SDS011;3792;47.740;7.606;2023-03-26T06:46:41;3.90;;;1.30;;
7501;SDS011;3792;47.740;7.606;2023-03-26T06:49:08;2.37;;;1.10;;
7501;SDS011;3792;47.740;7.606;2023-03-26T06:51:35;3.33;;;1.70;;
7501;SDS011;3792;47.740;7.606;2023-03-26T06:54:04;2.53;;;1.63;;
7501;SDS011;3792;47.740;7.606;2023-03-26T06:56:31;2.00;;;1.60;;
7501;SDS011;3792;47.740;7.606;2023-03-26T06:58:58;1.60;;;1.20;;
7501;SDS011;3792;47.740;7.606;2023-03-26T07:01:27;3.90;;;1.40;;
7501;SDS011;3792;47.740;7.606;2023-03-26T07:03:54;2.60;;;1.37;;
7501;SDS011;3792;47.740;7.606;2023-03-26T07:06:22;3.47;;;2.00;;
7501;SDS011;3792;47.740;7.606;2023-03-26T07:08:49;2.20;;;2.00;;
7501;SDS011;3792;47.740;7.606;2023-03-26T07:11:16;3.17;;;1.57;;
7501;SDS011;3792;47.740;7.606;2023-03-26T07:13:44;3.10;;;1.20;;
7501;SDS011;3792;47.740;7.606;2023-03-26T07:16:12;2.73;;;1.17;;
7501;SDS011;3792;47.740;7.606;2023-03-26T07:18:40;4.47;;;1.63;;
7501;SDS011;3792;47.740;7.606;2023-03-26T07:21:08;2.47;;;1.20;;
7501;SDS011;3792;47.740;7.606;2023-03-26T07:23:36;1.87;;;1.27;;
7501;SDS011;3792;47.740;7.606;2023-03-26T07:26:09;1.90;;;1.07;;
7501;SDS011;3792;47.740;7.606;2023-03-26T07:28:49;2.70;;;1.47;;
7501;SDS011;3792;47.740;7.606;2023-03-26T07:31:23;3.20;;;1.03;;
7501;SDS011;3792;47.740;7.606;2023-03-26T07:34:02;3.43;;;1.43;;
7501;SDS011;3792;47.740;7.606;2023-03-26T07:36:38;3.40;;;2.57;;
7501;SDS011;3792;47.740;7.606;2023-03-26T07:39:13;2.23;;;1.50;;
7501;SDS011;3792;47.740;7.606;2023-03-26T07:41:53;3.47;;;1.30;;
7501;SDS011;3792;47.740;7.606;2023-03-26T07:44:33;2.43;;;1.30;;
7501;SDS011;3792;47.740;7.606;2023-03-26T07:47:09;1.50;;;1.20;;
7501;SDS011;3792;47.740;7.606;2023-03-26T07:49:51;3.50;;;1.23;;
7501;SDS011;3792;47.740;7.606;2023-03-26T07:52:19;2.10;;;1.20;;
7501;SDS011;3792;47.740;7.606;2023-03-26T07:54:47;2.10;;;1.20;;
7501;SDS011;3792;47.740;7.606;2023-03-26T07:57:16;1.87;;;0.93;;
7501;SDS011;3792;47.740;7.606;2023-03-26T07:59:58;1.50;;;1.40;;
7501;SDS011;3792;47.740;7.606;2023-03-26T08:02:45;1.67;;;1.20;;
7501;SDS011;3792;47.740;7.606;2023-03-26T08:05:30;5.10;;;2.07;;
7501;SDS011;3792;47.740;7.606;2023-03-26T08:08:02;1.83;;;1.23;;
7501;SDS011;3792;47.740;7.606;2023-03-26T08:10:41;4.53;;;1.57;;
7501;SDS011;3792;47.740;7.606;2023-03-26T08:13:21;4.57;;;1.80;;
7501;SDS011;3792;47.740;7.606;2023-03-26T08:15:56;4.00;;;1.47;;
7501;SDS011;3792;47.740;7.606;2023-03-26T08:18:31;4.17;;;1.93;;
7501;SDS011;3792;47.740;7.606;2023-03-26T08:21:11;5.07;;;1.80;;
7501;SDS011;3792;47.740;7.606;2023-03-26T08:23:47;2.83;;;1.67;;
7501;SDS011;3792;47.740;7.606;2023-03-26T08:26:24;3.73;;;2.10;;
7501;SDS011;3792;47.740;7.606;2023-03-26T08:28:59;1.80;;;1.33;;
7501;SDS011;3792;47.740;7.606;2023-03-26T08:31:35;3.23;;;1.90;;
7501;SDS011;3792;47.740;7.606;2023-03-26T08:34:04;3.40;;;1.60;;
7501;SDS011;3792;47.740;7.606;2023-03-26T08:36:32;4.90;;;2.00;;
7501;SDS011;3792;47.740;7.606;2023-03-26T08:39:00;3.93;;;2.00;;
7501;SDS011;3792;47.740;7.606;2023-03-26T08:41:36;4.47;;;2.10;;
7501;SDS011;3792;47.740;7.606;2023-03-26T08:50:47;3.40;;;1.67;;
7501;SDS011;3792;47.740;7.606;2023-03-26T08:53:47;3.47;;;1.73;;
7501;SDS011;3792;47.740;7.606;2023-03-26T08:56:38;3.23;;;1.60;;
7501;SDS011;3792;47.740;7.606;2023-03-26T08:59:33;3.07;;;1.77;;
7501;SDS011;3792;47.740;7.606;2023-03-26T09:02:31;2.57;;;1.57;;
7501;SDS011;3792;47.740;7.606;2023-03-26T09:05:36;4.40;;;1.67;;
7501;SDS011;3792;47.740;7.606;2023-03-26T09:08:33;3.77;;;1.70;;
7501;SDS011;3792;47.740;7.606;2023-03-26T09:21:17;3.07;;;1.03;;
7501;SDS011;3792;47.740;7.606;2023-03-26T09:26:57;6.30;;;1.40;;
7501;SDS011;3792;47.740;7.606;2023-03-26T09:35:31;4.80;;;1.37;;
7501;SDS011;3792;47.740;7.606;2023-03-26T09:38:11;2.07;;;1.37;;
7501;SDS011;3792;47.740;7.606;2023-03-26T09:40:51;3.53;;;1.30;;
7501;SDS011;3792;47.740;7.606;2023-03-26T09:46:26;3.93;;;1.43;;
7501;SDS011;3792;47.740;7.606;2023-03-26T09:49:03;3.67;;;1.53;;
7501;SDS011;3792;47.740;7.606;2023-03-26T09:51:46;2.70;;;1.27;;
7501;SDS011;3792;47.740;7.606;2023-03-26T09:54:36;4.50;;;1.57;;
7501;SDS011;3792;47.740;7.606;2023-03-26T09:57:25;3.47;;;1.97;;
7501;SDS011;3792;47.740;7.606;2023-03-26T10:00:07;3.57;;;2.17;;
7501;SDS011;3792;47.740;7.606;2023-03-26T10:02:49;4.13;;;1.30;;
7501;SDS011;3792;47.740;7.606;2023-03-26T10:05:42;2.87;;;1.90;;
7501;SDS011;3792;47.740;7.606;2023-03-26T10:08:20;4.47;;;1.73;;
7501;SDS011;3792;47.740;7.606;2023-03-26T10:11:10;1.50;;;1.07;;
7501;SDS011;3792;47.740;7.606;2023-03-26T10:13:52;1.83;;;1.07;;
7501;SDS011;3792;47.740;7.606;2023-03-26T10:16:28;1.87;;;1.30;;
7501;SDS011;3792;47.740;7.606;2023-03-26T10:19:13;1.80;;;1.30;;
7501;SDS011;3792;47.740;7.606;2023-03-26T10:21:52;2.87;;;1.10;;
7501;SDS011;3792;47.740;7.606;2023-03-26T10:24:34;3.37;;;1.93;;
7501;SDS011;3792;47.740;7.606;2023-03-26T10:27:22;2.50;;;1.63;;
7501;SDS011;3792;47.740;7.606;2023-03-26T10:33:10;4.70;;;1.50;;
7501;SDS011;3792;47.740;7.606;2023-03-26T10:35:52;2.93;;;1.10;;
7501;SDS011;3792;47.740;7.606;2023-03-26T10:38:46;4.10;;;1.57;;
7501;SDS011;3792;47.740;7.606;2023-03-26T10:41:25;3.50;;;1.37;;
7501;SDS011;3792;47.740;7.606;2023-03-26T10:44:03;3.93;;;1.20;;
7501;SDS011;3792;47.740;7.606;2023-03-26T10:47:08;2.13;;;1.30;;
7501;SDS011;3792;47.740;7.606;2023-03-26T10:49:47;3.00;;;1.13;;
7501;SDS011;3792;47.740;7.606;2023-03-26T10:52:25;3.80;;;1.20;;
7501;SDS011;3792;47.740;7.606;2023-03-26T10:54:57;4.87;;;1.33;;
7501;SDS011;3792;47.740;7.606;2023-03-26T10:57:37;3.77;;;1.30;;
7501;SDS011;3792;47.740;7.606;2023-03-26T11:00:15;2.63;;;1.13;;
7501;SDS011;3792;47.740;7.606;2023-03-26T11:02:55;2.13;;;1.20;;
7501;SDS011;3792;47.740;7.606;2023-03-26T11:05:47;5.57;;;1.30;;
7501;SDS011;3792;47.740;7.606;2023-03-26T11:08:20;3.57;;;1.27;;
7501;SDS011;3792;47.740;7.606;2023-03-26T11:10:56;2.13;;;1.07;;
7501;SDS011;3792;47.740;7.606;2023-03-26T11:13:35;4.67;;;1.57;;
7501;SDS011;3792;47.740;7.606;2023-03-26T11:16:10;1.90;;;0.80;;
7501;SDS011;3792;47.740;7.606;2023-03-26T11:18:47;4.67;;;1.50;;
7501;SDS011;3792;47.740;7.606;2023-03-26T11:21:21;2.10;;;0.90;;
7501;SDS011;3792;47.740;7.606;2023-03-26T11:23:54;1.90;;;0.83;;
7501;SDS011;3792;47.740;7.606;2023-03-26T11:26:36;1.67;;;0.70;;
7501;SDS011;3792;47.740;7.606;2023-03-26T11:29:22;2.53;;;0.80;;
7501;SDS011;3792;47.740;7.606;2023-03-26T11:32:02;2.57;;;0.83;;
7501;SDS011;3792;47.740;7.606;2023-03-26T11:34:34;2.20;;;0.83;;
7501;SDS011;3792;47.740;7.606;2023-03-26T11:37:04;3.03;;;0.90;;
7501;SDS011;3792;47.740;7.606;2023-03-26T11:39:40;2.40;;;0.90;;
7501;SDS011;3792;47.740;7.606;2023-03-26T11:42:13;2.37;;;1.40;;
7501;SDS011;3792;47.740;7.606;2023-03-26T11:44:43;2.43;;;1.40;;
7501;SDS011;3792;47.740;7.606;2023-03-26T11:47:16;4.27;;;1.43;;
7501;SDS011;3792;47.740;7.606;2023-03-26T11:49:51;2.27;;;1.20;;
7501;SDS011;3792;47.740;7.606;2023-03-26T11:52:24;2.73;;;0.80;;
7501;SDS011;3792;47.740;7.606;2023-03-26T11:54:51;1.17;;;1.00;;
7501;SDS011;3792;47.740;7.606;2023-03-26T11:57:24;3.33;;;1.90;;
7501;SDS011;3792;47.740;7.606;2023-03-26T11:59:55;8.27;;;3.83;;
7501;SDS011;3792;47.740;7.606;2023-03-26T12:02:29;2.67;;;2.30;;
7501;SDS011;3792;47.740;7.606;2023-03-26T12:05:21;4.37;;;1.83;;
7501;SDS011;3792;47.740;7.606;2023-03-26T12:07:54;2.43;;;1.80;;
7501;SDS011;3792;47.740;7.606;2023-03-26T12:10:29;1.80;;;1.30;;
7501;SDS011;3792;47.740;7.606;2023-03-26T12:13:02;6.37;;;3.50;;
7501;SDS011;3792;47.740;7.606;2023-03-26T12:15:44;2.87;;;1.30;;
7501;SDS011;3792;47.740;7.606;2023-03-26T12:18:19;3.10;;;1.50;;
7501;SDS011;3792;47.740;7.606;2023-03-26T12:21:00;2.50;;;0.90;;
7501;SDS011;3792;47.740;7.606;2023-03-26T12:23:37;3.30;;;1.13;;
7501;SDS011;3792;47.740;7.606;2023-03-26T12:26:13;2.00;;;1.43;;
7501;SDS011;3792;47.740;7.606;2023-03-26T12:28:45;2.37;;;1.13;;
7501;SDS011;3792;47.740;7.606;2023-03-26T12:31:14;2.73;;;1.10;;
7501;SDS011;3792;47.740;7.606;2023-03-26T12:33:45;2.43;;;0.90;;
7501;SDS011;3792;47.740;7.606;2023-03-26T12:36:32;2.90;;;1.20;;
7501;SDS011;3792;47.740;7.606;2023-03-26T12:39:00;3.47;;;1.53;;
7501;SDS011;3792;47.740;7.606;2023-03-26T12:41:46;2.60;;;1.50;;
7501;SDS011;3792;47.740;7.606;2023-03-26T12:44:22;2.80;;;0.90;;
7501;SDS011;3792;47.740;7.606;2023-03-26T12:47:05;3.17;;;1.30;;
7501;SDS011;3792;47.740;7.606;2023-03-26T12:49:34;2.80;;;1.23;;
7501;SDS011;3792;47.740;7.606;2023-03-26T12:55:14;1.47;;;1.00;;
7501;SDS011;3792;47.740;7.606;2023-03-26T12:57:53;4.60;;;1.50;;
7501;SDS011;3792;47.740;7.606;2023-03-26T13:00:33;2.80;;;1.50;;
7501;SDS011;3792;47.740;7.606;2023-03-26T13:03:20;2.03;;;1.53;;
7501;SDS011;3792;47.740;7.606;2023-03-26T13:06:06;2.50;;;0.80;;
7501;SDS011;3792;47.740;7.606;2023-03-26T13:08:49;3.50;;;1.13;;
7501;SDS011;3792;47.740;7.606;2023-03-26T13:11:30;2.00;;;1.03;;
7501;SDS011;3792;47.740;7.606;2023-03-26T13:14:06;3.37;;;0.90;;
7501;SDS011;3792;47.740;7.606;2023-03-26T13:16:55;4.50;;;1.10;;
7501;SDS011;3792;47.740;7.606;2023-03-26T13:19:27;3.80;;;1.30;;
7501;SDS011;3792;47.740;7.606;2023-03-26T13:22:03;4.80;;;1.23;;
7501;SDS011;3792;47.740;7.606;2023-03-26T13:24:42;3.33;;;0.87;;
7501;SDS011;3792;47.740;7.606;2023-03-26T13:27:32;1.87;;;0.83;;
7501;SDS011;3792;47.740;7.606;2023-03-26T13:30:11;3.53;;;1.10;;
7501;SDS011;3792;47.740;7.606;2023-03-26T13:32:49;2.13;;;1.23;;
7501;SDS011;3792;47.740;7.606;2023-03-26T13:35:26;0.90;;;0.90;;
7501;SDS011;3792;47.740;7.606;2023-03-26T13:38:00;12.20;;;7.90;;
7501;SDS011;3792;47.740;7.606;2023-03-26T13:40:39;2.77;;;0.63;;
7501;SDS011;3792;47.740;7.606;2023-03-26T13:43:21;1.60;;;0.70;;
7501;SDS011;3792;47.740;7.606;2023-03-26T13:45:59;1.70;;;0.57;;
7501;SDS011;3792;47.740;7.606;2023-03-26T13:48:32;1.17;;;0.60;;
7501;SDS011;3792;47.740;7.606;2023-03-26T13:51:05;2.07;;;0.73;;
7501;SDS011;3792;47.740;7.606;2023-03-26T13:53:39;0.77;;;0.60;;
7501;SDS011;3792;47.740;7.606;2023-03-26T13:56:13;2.27;;;0.40;;
7501;SDS011;3792;47.740;7.606;2023-03-26T13:58:43;1.00;;;0.53;;
7501;SDS011;3792;47.740;7.606;2023-03-26T14:01:16;0.70;;;0.70;;
7501;SDS011;3792;47.740;7.606;2023-03-26T14:03:51;1.10;;;0.70;;
7501;SDS011;3792;47.740;7.606;2023-03-26T14:06:28;2.77;;;1.43;;
7501;SDS011;3792;47.740;7.606;2023-03-26T14:09:02;4.17;;;2.00;;
7501;SDS011;3792;47.740;7.606;2023-03-26T14:11:40;1.43;;;0.70;;
7501;SDS011;3792;47.740;7.606;2023-03-26T14:14:15;1.10;;;0.40;;
7501;SDS011;3792;47.740;7.606;2023-03-26T14:16:49;1.53;;;0.60;;
7501;SDS011;3792;47.740;7.606;2023-03-26T14:19:29;0.80;;;0.50;;
7501;SDS011;3792;47.740;7.606;2023-03-26T14:22:26;0.50;;;0.30;;
7501;SDS011;3792;47.740;7.606;2023-03-26T14:25:06;0.70;;;0.30;;
7501;SDS011;3792;47.740;7.606;2023-03-26T14:30:49;0.33;;;0.30;;
7501;SDS011;3792;47.740;7.606;2023-03-26T14:33:34;0.93;;;0.40;;
7501;SDS011;3792;47.740;7.606;2023-03-26T14:36:14;0.43;;;0.43;;
7501;SDS011;3792;47.740;7.606;2023-03-26T14:38:59;0.50;;;0.50;;
7501;SDS011;3792;47.740;7.606;2023-03-26T14:41:43;0.50;;;0.50;;
7501;SDS011;3792;47.740;7.606;2023-03-26T14:47:14;0.63;;;0.53;;
7501;SDS011;3792;47.740;7.606;2023-03-26T14:52:55;1.40;;;0.60;;
7501;SDS011;3792;47.740;7.606;2023-03-26T14:55:36;0.30;;;0.30;;
7501;SDS011;3792;47.740;7.606;2023-03-26T14:58:22;0.57;;;0.40;;
7501;SDS011;3792;47.740;7.606;2023-03-26T15:01:15;0.50;;;0.50;;
7501;SDS011;3792;47.740;7.606;2023-03-26T15:10:14;0.63;;;0.63;;
7501;SDS011;3792;47.740;7.606;2023-03-26T15:16:33;0.40;;;0.40;;
7501;SDS011;3792;47.740;7.606;2023-03-26T15:25:46;0.37;;;0.37;;
7501;SDS011;3792;47.740;7.606;2023-03-26T15:35:16;0.47;;;0.47;;
7501;SDS011;3792;47.740;7.606;2023-03-26T15:38:10;0.50;;;0.50;;
7501;SDS011;3792;47.740;7.606;2023-03-26T15:40:57;0.13;;;0.13;;
7501;SDS011;3792;47.740;7.606;2023-03-26T15:46:50;2.03;;;0.60;;
7501;SDS011;3792;47.740;7.606;2023-03-26T15:49:23;0.30;;;0.30;;
7501;SDS011;3792;47.740;7.606;2023-03-26T15:52:02;0.93;;;0.40;;
7501;SDS011;3792;47.740;7.606;2023-03-26T15:54:44;0.30;;;0.30;;
7501;SDS011;3792;47.740;7.606;2023-03-26T15:57:15;0.30;;;0.30;;
7501;SDS011;3792;47.740;7.606;2023-03-26T15:59:55;1.10;;;0.40;;
7501;SDS011;3792;47.740;7.606;2023-03-26T16:02:40;0.40;;;0.40;;
7501;SDS011;3792;47.740;7.606;2023-03-26T16:05:26;0.43;;;0.40;;
7501;SDS011;3792;47.740;7.606;2023-03-26T16:08:09;0.33;;;0.33;;
7501;SDS011;3792;47.740;7.606;2023-03-26T16:10:45;0.60;;;0.40;;
7501;SDS011;3792;47.740;7.606;2023-03-26T16:13:22;0.40;;;0.40;;
7501;SDS011;3792;47.740;7.606;2023-03-26T16:16:11;0.40;;;0.40;;
7501;SDS011;3792;47.740;7.606;2023-03-26T16:18:46;0.77;;;0.40;;
7501;SDS011;3792;47.740;7.606;2023-03-26T16:24:16;0.43;;;0.40;;
7501;SDS011;3792;47.740;7.606;2023-03-26T16:32:55;0.50;;;0.50;;
7501;SDS011;3792;47.740;7.606;2023-03-26T16:35:40;1.77;;;0.57;;
7501;SDS011;3792;47.740;7.606;2023-03-26T16:38:22;0.50;;;0.50;;
7501;SDS011;3792;47.740;7.606;2023-03-26T16:40:59;0.87;;;0.73;;
7501;SDS011;3792;47.740;7.606;2023-03-26T16:43:36;0.80;;;0.70;;
7501;SDS011;3792;47.740;7.606;2023-03-26T16:46:16;1.43;;;0.60;;
7501;SDS011;3792;47.740;7.606;2023-03-26T16:49:10;0.80;;;0.80;;
7501;SDS011;3792;47.740;7.606;2023-03-26T16:51:54;2.00;;;0.83;;
7501;SDS011;3792;47.740;7.606;2023-03-26T16:54:32;0.70;;;0.70;;
7501;SDS011;3792;47.740;7.606;2023-03-26T16:57:25;0.50;;;0.50;;
7501;SDS011;3792;47.740;7.606;2023-03-26T17:00:02;1.50;;;0.70;;
7501;SDS011;3792;47.740;7.606;2023-03-26T17:02:48;2.27;;;0.70;;
7501;SDS011;3792;47.740;7.606;2023-03-26T17:05:24;0.60;;;0.60;;
7501;SDS011;3792;47.740;7.606;2023-03-26T17:08:01;1.03;;;0.60;;
7501;SDS011;3792;47.740;7.606;2023-03-26T17:10:37;0.60;;;0.60;;
7501;SDS011;3792;47.740;7.606;2023-03-26T17:13:13;1.47;;;0.50;;
7501;SDS011;3792;47.740;7.606;2023-03-26T17:16:02;0.70;;;0.70;;
7501;SDS011;3792;47.740;7.606;2023-03-26T17:18:40;0.90;;;0.63;;
7501;SDS011;3792;47.740;7.606;2023-03-26T17:21:13;0.67;;;0.60;;